ěÝzenÝ letovÚho provozu ╚eskÚ republiky
Letiste: LKMT Aktualizace: 17.05.2022 23:30:30  UTC
 METAR LKMT 17.05. 23:30 ...
METAR LKMT 172330Z 06004KT CAVOK 10/09 Q1023 NOSIG=
 TAF LKMT 17.05. 23:00 ...
TAF LKMT 172300Z 1800/1906 05006KT CAVOK      TEMPO 1802/1805 5000 BR NSC      BECMG 1818/1820 20006KT=